Subaru Cyclo Cup - Day Two - 12:00

Sunday, November 15, 2015 12:04 PM (GMT-8) - Final results

Race info
Sport: Cycling - cyclocross
Location: Lakewood, WA, United States
Start type: Mass start
Racers: 21
Laps: Time-limited
Timed on: iPad
Timed with: Webscorer PRO 2.1
Chip timing: RFID - LLRP
Updated: Sunday, November 15, 2015 12:58 PM (GMT-8)
Organized by: MFG Presents
Race website: www.mfgcyclocross.com

Contact organizer

Use this form to send an email to the organizer.

Your name
Your email address
Confirm email address
Message to organizer
Send

Subaru Cyclo Cup - Day Two - 12:00

  • Race winners »
  • Overall - Cat 3 Men 45+
  • Lap times
Place Bib Racer name Affiliation Category Age Lap time
1 600 Steve Hindman Pen Velo Racing/Summit Bikes - 62921  Cat 3 Men 45+ 48 9:00.1 -+0.00%100.00%1
2 545 Owen Scott Steed Cycles - BC001656  Cat 3 Men 45+ 48 9:15.6 +0:15.5+2.87%97.21%1
3 544 TODD ANDERSON Bike Masters - 1713  Cat 3 Men 45+ 53 9:16.1 +0:16.0+2.96%97.12%1
4 546 Todd Reedy 457546  Cat 3 Men 45+ 52 9:23.6 +0:23.5+4.35%95.83%1
5 566 Peter Avolio Metier - 288366  Cat 3 Men 45+ 50 9:28.0 +0:27.9+5.17%95.09%1
6 555 Erik Olson Cucina Fresca - 26714  Cat 3 Men 45+ 50 9:28.4 +0:28.3+5.24%95.02%1
7 600 Steve Hindman Pen Velo Racing/Summit Bikes - 62921  Cat 3 Men 45+ 48 9:33.9 +0:33.8+6.26%94.11%3
8 597 Chris Wood 389465  Cat 3 Men 45+ 52 9:35.2 +0:35.1+6.50%93.90%3
9 597 Chris Wood 389465  Cat 3 Men 45+ 52 9:37.7 +0:37.6+6.96%93.49%2
10 555 Erik Olson Cucina Fresca - 26714  Cat 3 Men 45+ 50 9:38.9 +0:38.8+7.18%93.30%4
11 555 Erik Olson Cucina Fresca - 26714  Cat 3 Men 45+ 50 9:39.0 +0:38.9+7.20%93.28%2
11 569 Sven Koehler 487628  Cat 3 Men 45+ 45 9:39.0 +0:38.9+7.20%93.28%5
13 555 Erik Olson Cucina Fresca - 26714  Cat 3 Men 45+ 50 9:39.3 +0:39.2+7.26%93.23%3
14 597 Chris Wood 389465  Cat 3 Men 45+ 52 9:39.4 +0:39.3+7.28%93.22%1
15 566 Peter Avolio Metier - 288366  Cat 3 Men 45+ 50 9:39.5 +0:39.4+7.29%93.20%5
16 566 Peter Avolio Metier - 288366  Cat 3 Men 45+ 50 9:40.0 +0:39.9+7.39%93.12%4
17 569 Sven Koehler 487628  Cat 3 Men 45+ 45 9:40.1 +0:40.0+7.41%93.10%1
18 564 Matthew Stanigar Dyna Racing - 76958  Cat 3 Men 45+ 46 9:40.2 +0:40.1+7.42%93.09%1
19 550 Denny Bartlett Bikesport - 49565  Cat 3 Men 45+ 47 9:42.4 +0:42.3+7.83%92.74%5
20 546 Todd Reedy 457546  Cat 3 Men 45+ 52 9:42.5 +0:42.4+7.85%92.72%2
21 541 Darrin Grund EV/DEVO P/B Catalyst Kinetics - CAN19661217  Cat 3 Men 45+ 49 9:42.8 +0:42.7+7.91%92.67%1
22 597 Chris Wood 389465  Cat 3 Men 45+ 52 9:42.9 +0:42.8+7.92%92.66%4
23 600 Steve Hindman Pen Velo Racing/Summit Bikes - 62921  Cat 3 Men 45+ 48 9:44.0 +0:43.9+8.13%92.48%2
24 600 Steve Hindman Pen Velo Racing/Summit Bikes - 62921  Cat 3 Men 45+ 48 9:44.2 +0:44.1+8.17%92.45%4
24 545 Owen Scott Steed Cycles - BC001656  Cat 3 Men 45+ 48 9:44.2 +0:44.1+8.17%92.45%5
24 564 Matthew Stanigar Dyna Racing - 76958  Cat 3 Men 45+ 46 9:44.2 +0:44.1+8.17%92.45%5
27 555 Erik Olson Cucina Fresca - 26714  Cat 3 Men 45+ 50 9:44.5 +0:44.4+8.22%92.40%5
28 566 Peter Avolio Metier - 288366  Cat 3 Men 45+ 50 9:45.3 +0:45.2+8.37%92.28%3
29 546 Todd Reedy 457546  Cat 3 Men 45+ 52 9:46.2 +0:46.1+8.54%92.14%4
30 544 TODD ANDERSON Bike Masters - 1713  Cat 3 Men 45+ 53 9:46.6 +0:46.5+8.61%92.07%3
31 569 Sven Koehler 487628  Cat 3 Men 45+ 45 9:47.1 +0:47.0+8.70%91.99%4
31 546 Todd Reedy 457546  Cat 3 Men 45+ 52 9:47.1 +0:47.0+8.70%91.99%5
33 554 John Drenning Dyna Racing - 121908  Cat 3 Men 45+ 47 9:48.3 +0:48.2+8.92%91.81%3
34 550 Denny Bartlett Bikesport - 49565  Cat 3 Men 45+ 47 9:48.9 +0:48.8+9.04%91.71%3
35 549 Kenneth Ramirez Nemesis Racing - 255649  Cat 3 Men 45+ 46 9:49.0 +0:48.9+9.05%91.70%1
36 600 Steve Hindman Pen Velo Racing/Summit Bikes - 62921  Cat 3 Men 45+ 48 9:49.1 +0:49.0+9.07%91.68%5
37 548 Paul Claeys Dyna Racing - 362192  Cat 3 Men 45+ 51 9:49.2 +0:49.1+9.09%91.67%5
38 550 Denny Bartlett Bikesport - 49565  Cat 3 Men 45+ 47 9:49.3 +0:49.2+9.11%91.65%1
38 550 Denny Bartlett Bikesport - 49565  Cat 3 Men 45+ 47 9:49.3 +0:49.2+9.11%91.65%4
40 566 Peter Avolio Metier - 288366  Cat 3 Men 45+ 50 9:49.4 +0:49.3+9.13%91.64%2
41 554 John Drenning Dyna Racing - 121908  Cat 3 Men 45+ 47 9:50.1 +0:50.0+9.26%91.53%2
42 548 Paul Claeys Dyna Racing - 362192  Cat 3 Men 45+ 51 9:50.3 +0:50.2+9.29%91.50%2
43 544 TODD ANDERSON Bike Masters - 1713  Cat 3 Men 45+ 53 9:50.6 +0:50.5+9.35%91.45%2
44 554 John Drenning Dyna Racing - 121908  Cat 3 Men 45+ 47 9:50.9 +0:50.8+9.41%91.40%5
45 568 Forrest Murphy Blue Rooster - 278903  Cat 3 Men 45+ 44 9:51.9 +0:51.8+9.59%91.25%5
46 545 Owen Scott Steed Cycles - BC001656  Cat 3 Men 45+ 48 9:52.3 +0:52.2+9.66%91.19%2
47 541 Darrin Grund EV/DEVO P/B Catalyst Kinetics - CAN19661217  Cat 3 Men 45+ 49 9:52.5 +0:52.4+9.70%91.16%2
48 545 Owen Scott Steed Cycles - BC001656  Cat 3 Men 45+ 48 9:53.0 +0:52.9+9.79%91.08%4
49 548 Paul Claeys Dyna Racing - 362192  Cat 3 Men 45+ 51 9:53.7 +0:53.6+9.92%90.97%3
50 561 Nathan Webster Blue Rooster - 52142  Cat 3 Men 45+ 48 9:54.2 +0:54.1+10.02%90.90%1
50 550 Denny Bartlett Bikesport - 49565  Cat 3 Men 45+ 47 9:54.2 +0:54.1+10.02%90.90%2
52 554 John Drenning Dyna Racing - 121908  Cat 3 Men 45+ 47 9:54.3 +0:54.2+10.04%90.88%1
53 569 Sven Koehler 487628  Cat 3 Men 45+ 45 9:54.5 +0:54.4+10.07%90.85%2
54 568 Forrest Murphy Blue Rooster - 278903  Cat 3 Men 45+ 44 9:54.8 +0:54.7+10.13%90.80%1
54 597 Chris Wood 389465  Cat 3 Men 45+ 52 9:54.8 +0:54.7+10.13%90.80%5
56 569 Sven Koehler 487628  Cat 3 Men 45+ 45 9:54.9 +0:54.8+10.15%90.79%3
57 546 Todd Reedy 457546  Cat 3 Men 45+ 52 9:56.5 +0:56.4+10.44%90.54%3
58 564 Matthew Stanigar Dyna Racing - 76958  Cat 3 Men 45+ 46 9:57.4 +0:57.3+10.61%90.41%3
59 548 Paul Claeys Dyna Racing - 362192  Cat 3 Men 45+ 51 9:58.2 +0:58.1+10.76%90.29%1
60 545 Owen Scott Steed Cycles - BC001656  Cat 3 Men 45+ 48 9:58.7 +0:58.6+10.85%90.21%3
61 564 Matthew Stanigar Dyna Racing - 76958  Cat 3 Men 45+ 46 9:58.8 +0:58.7+10.87%90.20%4
62 561 Nathan Webster Blue Rooster - 52142  Cat 3 Men 45+ 48 9:59.0 +0:58.9+10.91%90.17%2
63 554 John Drenning Dyna Racing - 121908  Cat 3 Men 45+ 47 9:59.8 +0:59.7+11.05%90.05%4
64 549 Kenneth Ramirez Nemesis Racing - 255649  Cat 3 Men 45+ 46 10:00.6 +1:00.5+11.20%89.93%2
65 598 Chris Mendoza Green Bike Team - 132482  Cat 3 Men 45+ 54 10:01.0 +1:00.9+11.28%89.87%5
66 568 Forrest Murphy Blue Rooster - 278903  Cat 3 Men 45+ 44 10:01.8 +1:01.7+11.42%89.75%3
67 598 Chris Mendoza Green Bike Team - 132482  Cat 3 Men 45+ 54 10:02.1 +1:02.0+11.48%89.70%2
68 598 Chris Mendoza Green Bike Team - 132482  Cat 3 Men 45+ 54 10:03.0 +1:02.9+11.65%89.57%1
69 564 Matthew Stanigar Dyna Racing - 76958  Cat 3 Men 45+ 46 10:04.2 +1:04.1+11.87%89.39%2
70 561 Nathan Webster Blue Rooster - 52142  Cat 3 Men 45+ 48 10:04.3 +1:04.2+11.89%89.38%5
71 541 Darrin Grund EV/DEVO P/B Catalyst Kinetics - CAN19661217  Cat 3 Men 45+ 49 10:04.7 +1:04.6+11.96%89.32%4
72 544 TODD ANDERSON Bike Masters - 1713  Cat 3 Men 45+ 53 10:05.7 +1:05.6+12.15%89.17%5
73 552 Nigel Newby-House Motofish - One-Day  Cat 3 Men 45+ 46 10:08.8 +1:08.7+12.72%88.72%1
74 598 Chris Mendoza Green Bike Team - 132482  Cat 3 Men 45+ 54 10:09.9 +1:09.8+12.92%88.56%3
74 568 Forrest Murphy Blue Rooster - 278903  Cat 3 Men 45+ 44 10:09.9 +1:09.8+12.92%88.56%4
76 548 Paul Claeys Dyna Racing - 362192  Cat 3 Men 45+ 51 10:10.0 +1:09.9+12.94%88.54%4
77 561 Nathan Webster Blue Rooster - 52142  Cat 3 Men 45+ 48 10:11.8 +1:11.7+13.28%88.28%4
78 541 Darrin Grund EV/DEVO P/B Catalyst Kinetics - CAN19661217  Cat 3 Men 45+ 49 10:12.3 +1:12.2+13.37%88.21%3
78 561 Nathan Webster Blue Rooster - 52142  Cat 3 Men 45+ 48 10:12.3 +1:12.2+13.37%88.21%3
80 541 Darrin Grund EV/DEVO P/B Catalyst Kinetics - CAN19661217  Cat 3 Men 45+ 49 10:14.4 +1:14.3+13.76%87.91%5
81 565 Paul Dinger Cucina Fresca - 271936  Cat 3 Men 45+ 52 10:14.5 +1:14.4+13.78%87.89%1
82 552 Nigel Newby-House Motofish - One-Day  Cat 3 Men 45+ 46 10:17.1 +1:17.0+14.26%87.52%2
83 568 Forrest Murphy Blue Rooster - 278903  Cat 3 Men 45+ 44 10:18.8 +1:18.7+14.57%87.28%2
84 549 Kenneth Ramirez Nemesis Racing - 255649  Cat 3 Men 45+ 46 10:19.4 +1:19.3+14.68%87.20%3
85 544 TODD ANDERSON Bike Masters - 1713  Cat 3 Men 45+ 53 10:20.3 +1:20.2+14.85%87.07%4
86 598 Chris Mendoza Green Bike Team - 132482  Cat 3 Men 45+ 54 10:21.7 +1:21.6+15.11%86.87%4
87 549 Kenneth Ramirez Nemesis Racing - 255649  Cat 3 Men 45+ 46 10:23.1 +1:23.0+15.37%86.68%4
88 552 Nigel Newby-House Motofish - One-Day  Cat 3 Men 45+ 46 10:32.9 +1:32.8+17.18%85.34%3
89 552 Nigel Newby-House Motofish - One-Day  Cat 3 Men 45+ 46 10:33.5 +1:33.4+17.29%85.26%5
90 588 Jason Land Dyna Racing - 107699  Cat 3 Men 45+ 47 10:34.9 +1:34.8+17.55%85.07%1
91 552 Nigel Newby-House Motofish - One-Day  Cat 3 Men 45+ 46 10:37.0 +1:36.9+17.94%84.79%4
92 549 Kenneth Ramirez Nemesis Racing - 255649  Cat 3 Men 45+ 46 10:46.2 +1:46.1+19.64%83.58%5
93 565 Paul Dinger Cucina Fresca - 271936  Cat 3 Men 45+ 52 10:58.3 +1:58.2+21.88%82.04%2
94 588 Jason Land Dyna Racing - 107699  Cat 3 Men 45+ 47 11:01.3 +2:01.2+22.44%81.67%4
95 565 Paul Dinger Cucina Fresca - 271936  Cat 3 Men 45+ 52 11:02.9 +2:02.8+22.74%81.48%4
96 565 Paul Dinger Cucina Fresca - 271936  Cat 3 Men 45+ 52 11:05.0 +2:04.9+23.13%81.22%3
97 588 Jason Land Dyna Racing - 107699  Cat 3 Men 45+ 47 11:13.9 +2:13.8+24.77%80.15%3
98 567 Reeve Geary Blue Rooster - 12989  Cat 3 Men 45+ 49 11:17.2 +2:17.1+25.38%79.75%1
99 588 Jason Land Dyna Racing - 107699  Cat 3 Men 45+ 47 11:18.7 +2:18.6+25.66%79.58%2
100 567 Reeve Geary Blue Rooster - 12989  Cat 3 Men 45+ 49 11:58.7 +2:58.6+33.07%75.15%2
101 567 Reeve Geary Blue Rooster - 12989  Cat 3 Men 45+ 49 11:59.8 +2:59.7+33.27%75.03%3
102 567 Reeve Geary Blue Rooster - 12989  Cat 3 Men 45+ 49 12:11.2 +3:11.1+35.38%73.86%4